Orient, Maine
Current Conditions -  °F | °C
As of 2:53 PM on Wednesday 26 Nov 2014 (Local Time) from KHUL Reporting Station
Overcast Overcast  
Wind Chill: 36°   Ceiling: 9500
Heat Index: 36°   Visibility: 10mi
Dew Point: 23°   Wind: 3mph
Humidity: 59%   Direction: 20°NNE
Pressure: 30.12"   Gusts: NA
Location:  45.82°N, 67.84°W
Report Text: KHUL 261953Z AUTO 02003KT 10SM OVC095 02/M05 A3012 RMK AO2 PRESFR SLP204 T00221050
Loading
Personal Weather Stations






























Interactive Weather Map New forecast layout! Learn more

10-Day Weather Forecast

Advertisements
Track Severe Weather on mobile